Terminal Aerodrome Forecast
Issued by NWS

Home | Current Version | Previous Version | Text Only | Print | Product List | Glossary On
Versions: 1 2 3 4 5 6 7 8 9 10 11 12 13 14 15
000
FTAK31 PAJN 240500
TAFAGY
TAF
PAGY 240529Z 2406/2506 21008KT P6SM VCSH OVC060
     FM241200 21003KT P6SM VCSH BKN040 OVC060
     FM242100 21012KT P6SM BKN050 BKN070
      AMD LTD TO CLD VIS AND WIND=

USA.gov is the U.S. government's official web portal to all federal, state and local government web resources and services.